Atlanta, Indiana
Current Conditions -  °F | °C
As of 11:15 AM on Friday 24 Oct 2014 (Local Time) from KTYQ Reporting Station
Overcast Overcast  
Wind Chill: 53°   Ceiling: 1900
Heat Index: 53°   Visibility: 10mi
Dew Point: 45°   Wind: 3mph
Humidity: 75%   Direction: 220°SW
Pressure: 30.11"   Gusts: NA
Location:  40.22°N, 86.03°W
Report Text: KTYQ 241515Z AUTO 22003KT 10SM BKN019 BKN048 OVC085 12/07 A3011 RMK AO2 T01160074
Loading
Personal Weather Stations






























Interactive Weather Map
Tropical Storm Tracking
New forecast layout! Learn more

10-Day Weather Forecast

Advertisements
Track Severe Weather on mobile